sensor_id;sensor_type;location;lat;lon;timestamp;pressure;altitude;pressure_sealevel;temperature;humidity
80323;BME280;69636;52.372;13.610;2023-09-12T00:02:06;100911.78;;;16.37;100.00
80323;BME280;69636;52.372;13.610;2023-09-12T00:04:35;100912.50;;;16.31;100.00
80323;BME280;69636;52.372;13.610;2023-09-12T00:07:03;100913.06;;;16.26;100.00
80323;BME280;69636;52.372;13.610;2023-09-12T00:09:30;100920.31;;;16.47;100.00
80323;BME280;69636;52.372;13.610;2023-09-12T00:11:57;100920.50;;;16.45;100.00
80323;BME280;69636;52.372;13.610;2023-09-12T00:14:25;100918.94;;;16.51;100.00
80323;BME280;69636;52.372;13.610;2023-09-12T00:16:52;100920.38;;;16.32;100.00
80323;BME280;69636;52.372;13.610;2023-09-12T00:19:19;100926.72;;;16.16;100.00
80323;BME280;69636;52.372;13.610;2023-09-12T00:21:48;100922.66;;;16.20;100.00
80323;BME280;69636;52.372;13.610;2023-09-12T00:24:16;100918.78;;;16.23;100.00
80323;BME280;69636;52.372;13.610;2023-09-12T00:26:43;100917.94;;;16.37;100.00
80323;BME280;69636;52.372;13.610;2023-09-12T00:29:16;100925.16;;;16.22;100.00
80323;BME280;69636;52.372;13.610;2023-09-12T00:31:43;100924.06;;;16.16;100.00
80323;BME280;69636;52.372;13.610;2023-09-12T00:34:15;100920.28;;;16.11;100.00
80323;BME280;69636;52.372;13.610;2023-09-12T00:36:46;100924.16;;;16.08;100.00
80323;BME280;69636;52.372;13.610;2023-09-12T00:39:14;100922.38;;;16.15;100.00
80323;BME280;69636;52.372;13.610;2023-09-12T00:41:42;100913.41;;;16.38;100.00
80323;BME280;69636;52.372;13.610;2023-09-12T00:44:10;100915.72;;;16.41;100.00
80323;BME280;69636;52.372;13.610;2023-09-12T00:46:38;100923.59;;;16.27;100.00
80323;BME280;69636;52.372;13.610;2023-09-12T00:49:06;100921.75;;;16.13;100.00
80323;BME280;69636;52.372;13.610;2023-09-12T00:51:58;100924.53;;;16.05;100.00
80323;BME280;69636;52.372;13.610;2023-09-12T00:54:34;100918.53;;;16.03;100.00
80323;BME280;69636;52.372;13.610;2023-09-12T00:57:01;100916.59;;;15.97;100.00
80323;BME280;69636;52.372;13.610;2023-09-12T00:59:29;100920.56;;;16.01;100.00
80323;BME280;69636;52.372;13.610;2023-09-12T01:02:03;100919.06;;;16.28;100.00
80323;BME280;69636;52.372;13.610;2023-09-12T01:04:30;100915.13;;;16.09;100.00
80323;BME280;69636;52.372;13.610;2023-09-12T01:07:02;100912.63;;;16.08;100.00
80323;BME280;69636;52.372;13.610;2023-09-12T01:09:34;100921.94;;;15.97;100.00
80323;BME280;69636;52.372;13.610;2023-09-12T01:12:02;100917.44;;;15.83;100.00
80323;BME280;69636;52.372;13.610;2023-09-12T01:14:29;100922.19;;;15.73;100.00
80323;BME280;69636;52.372;13.610;2023-09-12T01:16:57;100922.09;;;15.66;100.00
80323;BME280;69636;52.372;13.610;2023-09-12T01:19:25;100916.75;;;15.66;100.00
80323;BME280;69636;52.372;13.610;2023-09-12T01:25:19;100919.16;;;15.76;100.00
80323;BME280;69636;52.372;13.610;2023-09-12T01:27:52;100914.59;;;15.61;100.00
80323;BME280;69636;52.372;13.610;2023-09-12T01:30:21;100917.94;;;15.64;100.00
80323;BME280;69636;52.372;13.610;2023-09-12T01:32:49;100920.34;;;15.58;100.00
80323;BME280;69636;52.372;13.610;2023-09-12T01:35:17;100911.56;;;15.65;100.00
80323;BME280;69636;52.372;13.610;2023-09-12T01:37:51;100915.75;;;15.82;100.00
80323;BME280;69636;52.372;13.610;2023-09-12T01:40:19;100921.19;;;15.74;100.00
80323;BME280;69636;52.372;13.610;2023-09-12T01:42:56;100922.91;;;15.67;100.00
80323;BME280;69636;52.372;13.610;2023-09-12T01:45:25;100921.34;;;15.57;100.00
80323;BME280;69636;52.372;13.610;2023-09-12T01:47:52;100922.03;;;15.51;100.00
80323;BME280;69636;52.372;13.610;2023-09-12T01:50:20;100917.28;;;15.61;100.00
80323;BME280;69636;52.372;13.610;2023-09-12T01:52:49;100921.34;;;15.57;100.00
80323;BME280;69636;52.372;13.610;2023-09-12T01:55:16;100921.34;;;15.57;100.00
80323;BME280;69636;52.372;13.610;2023-09-12T01:58:11;100915.00;;;15.73;100.00
80323;BME280;69636;52.372;13.610;2023-09-12T02:00:44;100918.50;;;15.88;100.00
80323;BME280;69636;52.372;13.610;2023-09-12T02:03:11;100922.00;;;15.89;100.00
80323;BME280;69636;52.372;13.610;2023-09-12T02:05:39;100917.84;;;15.72;100.00
80323;BME280;69636;52.372;13.610;2023-09-12T02:08:13;100917.09;;;15.63;100.00
80323;BME280;69636;52.372;13.610;2023-09-12T02:10:40;100912.03;;;15.68;100.00
80323;BME280;69636;52.372;13.610;2023-09-12T02:13:08;100905.69;;;15.84;100.00
80323;BME280;69636;52.372;13.610;2023-09-12T02:15:39;100905.50;;;15.71;100.00
80323;BME280;69636;52.372;13.610;2023-09-12T02:18:07;100896.88;;;15.60;100.00
80323;BME280;69636;52.372;13.610;2023-09-12T02:20:38;100900.00;;;15.49;100.00
80323;BME280;69636;52.372;13.610;2023-09-12T02:23:05;100905.75;;;15.38;100.00
80323;BME280;69636;52.372;13.610;2023-09-12T02:25:32;100897.44;;;15.33;100.00
80323;BME280;69636;52.372;13.610;2023-09-12T02:28:00;100900.31;;;15.32;100.00
80323;BME280;69636;52.372;13.610;2023-09-12T02:30:27;100904.84;;;15.31;100.00
80323;BME280;69636;52.372;13.610;2023-09-12T02:32:56;100897.34;;;15.26;100.00
80323;BME280;69636;52.372;13.610;2023-09-12T02:35:23;100898.84;;;15.29;100.00
80323;BME280;69636;52.372;13.610;2023-09-12T02:37:50;100900.22;;;15.25;100.00
80323;BME280;69636;52.372;13.610;2023-09-12T02:40:17;100898.72;;;15.22;100.00
80323;BME280;69636;52.372;13.610;2023-09-12T02:42:45;100892.31;;;15.32;100.00
80323;BME280;69636;52.372;13.610;2023-09-12T02:45:18;100895.81;;;15.32;100.00
80323;BME280;69636;52.372;13.610;2023-09-12T02:47:45;100896.91;;;15.38;100.00
80323;BME280;69636;52.372;13.610;2023-09-12T02:50:14;100901.22;;;15.24;100.00
80323;BME280;69636;52.372;13.610;2023-09-12T02:52:44;100902.94;;;15.17;100.00
80323;BME280;69636;52.372;13.610;2023-09-12T02:55:12;100897.75;;;15.15;100.00
80323;BME280;69636;52.372;13.610;2023-09-12T02:57:39;100891.00;;;15.27;100.00
80323;BME280;69636;52.372;13.610;2023-09-12T03:00:07;100896.03;;;15.22;100.00
80323;BME280;69636;52.372;13.610;2023-09-12T03:02:35;100890.75;;;15.14;100.00
80323;BME280;69636;52.372;13.610;2023-09-12T03:05:02;100894.75;;;15.18;100.00
80323;BME280;69636;52.372;13.610;2023-09-12T03:07:55;100885.50;;;15.44;100.00
80323;BME280;69636;52.372;13.610;2023-09-12T03:10:29;100891.81;;;15.66;99.75
80323;BME280;69636;52.372;13.610;2023-09-12T03:12:56;100890.91;;;15.36;100.00
80323;BME280;69636;52.372;13.610;2023-09-12T03:15:23;100891.22;;;15.18;100.00
80323;BME280;69636;52.372;13.610;2023-09-12T03:17:57;100889.47;;;15.48;100.00
80323;BME280;69636;52.372;13.610;2023-09-12T03:20:24;100882.03;;;15.35;100.00
80323;BME280;69636;52.372;13.610;2023-09-12T03:22:51;100882.16;;;15.42;100.00
80323;BME280;69636;52.372;13.610;2023-09-12T03:25:23;100880.00;;;15.22;100.00
80323;BME280;69636;52.372;13.610;2023-09-12T03:27:50;100884.22;;;15.17;100.00
80323;BME280;69636;52.372;13.610;2023-09-12T03:30:19;100886.53;;;15.20;100.00
80323;BME280;69636;52.372;13.610;2023-09-12T03:32:47;100875.25;;;15.10;100.00
80323;BME280;69636;52.372;13.610;2023-09-12T03:35:15;100877.63;;;15.27;100.00
80323;BME280;69636;52.372;13.610;2023-09-12T03:37:42;100874.25;;;15.48;100.00
80323;BME280;69636;52.372;13.610;2023-09-12T03:40:10;100874.03;;;15.35;100.00
80323;BME280;69636;52.372;13.610;2023-09-12T03:42:39;100875.84;;;15.20;100.00
80323;BME280;69636;52.372;13.610;2023-09-12T03:45:09;100877.84;;;15.03;100.00
80323;BME280;69636;52.372;13.610;2023-09-12T03:47:37;100878.72;;;14.96;100.00
80323;BME280;69636;52.372;13.610;2023-09-12T03:50:05;100881.56;;;14.94;100.00
80323;BME280;69636;52.372;13.610;2023-09-12T03:52:33;100878.53;;;14.97;100.00
80323;BME280;69636;52.372;13.610;2023-09-12T03:55:07;100885.91;;;14.95;100.00
80323;BME280;69636;52.372;13.610;2023-09-12T03:57:34;100881.78;;;14.84;100.00
80323;BME280;69636;52.372;13.610;2023-09-12T04:00:04;100893.50;;;14.83;100.00
80323;BME280;69636;52.372;13.610;2023-09-12T04:02:34;100888.81;;;14.85;100.00
80323;BME280;69636;52.372;13.610;2023-09-12T04:05:02;100892.22;;;14.79;100.00
80323;BME280;69636;52.372;13.610;2023-09-12T04:07:29;100893.22;;;14.78;100.00
80323;BME280;69636;52.372;13.610;2023-09-12T04:09:57;100896.75;;;14.71;100.00
80323;BME280;69636;52.372;13.610;2023-09-12T04:12:24;100901.97;;;14.64;100.00
80323;BME280;69636;52.372;13.610;2023-09-12T04:14:52;100894.63;;;14.66;100.00
80323;BME280;69636;52.372;13.610;2023-09-12T04:17:45;100899.59;;;14.69;100.00
80323;BME280;69636;52.372;13.610;2023-09-12T04:20:19;100889.88;;;14.76;100.00
80323;BME280;69636;52.372;13.610;2023-09-12T04:22:46;100894.56;;;14.74;100.00
80323;BME280;69636;52.372;13.610;2023-09-12T04:25:13;100897.59;;;14.71;100.00
80323;BME280;69636;52.372;13.610;2023-09-12T04:27:47;100897.59;;;14.71;100.00
80323;BME280;69636;52.372;13.610;2023-09-12T04:30:14;100897.25;;;14.74;100.00
80323;BME280;69636;52.372;13.610;2023-09-12T04:32:42;100901.78;;;14.66;100.00
80323;BME280;69636;52.372;13.610;2023-09-12T04:35:14;100907.06;;;14.51;100.00
80323;BME280;69636;52.372;13.610;2023-09-12T04:37:41;100917.41;;;14.54;100.00
80323;BME280;69636;52.372;13.610;2023-09-12T04:40:09;100909.41;;;14.54;100.00
80323;BME280;69636;52.372;13.610;2023-09-12T04:42:37;100907.97;;;14.66;100.00
80323;BME280;69636;52.372;13.610;2023-09-12T04:45:04;100914.31;;;14.65;100.00
80323;BME280;69636;52.372;13.610;2023-09-12T04:47:32;100909.69;;;14.59;100.00
80323;BME280;69636;52.372;13.610;2023-09-12T04:49:59;100909.56;;;14.52;100.00
80323;BME280;69636;52.372;13.610;2023-09-12T04:52:28;100914.25;;;14.50;100.00
80323;BME280;69636;52.372;13.610;2023-09-12T04:54:58;100909.31;;;14.62;100.00
80323;BME280;69636;52.372;13.610;2023-09-12T04:57:26;100901.69;;;14.82;100.00
80323;BME280;69636;52.372;13.610;2023-09-12T04:59:53;100898.31;;;14.88;100.00
80323;BME280;69636;52.372;13.610;2023-09-12T05:02:20;100901.75;;;14.97;100.00
80323;BME280;69636;52.372;13.610;2023-09-12T05:04:54;100895.44;;;15.12;100.00
80323;BME280;69636;52.372;13.610;2023-09-12T05:07:21;100894.41;;;14.99;100.00
80323;BME280;69636;52.372;13.610;2023-09-12T05:09:50;100900.16;;;14.87;100.00
80323;BME280;69636;52.372;13.610;2023-09-12T05:12:20;100903.81;;;14.86;100.00
80323;BME280;69636;52.372;13.610;2023-09-12T05:14:47;100903.78;;;14.94;100.00
80323;BME280;69636;52.372;13.610;2023-09-12T05:17:15;100909.97;;;14.95;100.00
80323;BME280;69636;52.372;13.610;2023-09-12T05:19:42;100914.47;;;14.94;100.00
80323;BME280;69636;52.372;13.610;2023-09-12T05:22:09;100913.47;;;14.96;100.00
80323;BME280;69636;52.372;13.610;2023-09-12T05:24:37;100914.47;;;14.94;100.00
80323;BME280;69636;52.372;13.610;2023-09-12T05:27:29;100916.13;;;14.96;100.00
80323;BME280;69636;52.372;13.610;2023-09-12T05:30:03;100913.78;;;15.01;100.00
80323;BME280;69636;52.372;13.610;2023-09-12T05:32:30;100926.00;;;15.18;100.00
80323;BME280;69636;52.372;13.610;2023-09-12T05:34:58;100927.31;;;15.22;100.00
80323;BME280;69636;52.372;13.610;2023-09-12T05:37:47;100920.50;;;15.34;100.00
80323;BME280;69636;52.372;13.610;2023-09-12T05:40:14;100922.28;;;15.42;100.00
80323;BME280;69636;52.372;13.610;2023-09-12T05:42:46;100925.72;;;15.50;100.00
80323;BME280;69636;52.372;13.610;2023-09-12T05:45:13;100927.88;;;15.55;100.00
80323;BME280;69636;52.372;13.610;2023-09-12T05:47:41;100927.53;;;15.58;100.00
80323;BME280;69636;52.372;13.610;2023-09-12T05:50:08;100931.66;;;15.60;100.00
80323;BME280;69636;52.372;13.610;2023-09-12T05:52:36;100930.78;;;15.68;100.00
80323;BME280;69636;52.372;13.610;2023-09-12T05:55:04;100936.59;;;15.72;100.00
80323;BME280;69636;52.372;13.610;2023-09-12T05:57:31;100937.81;;;15.84;100.00
80323;BME280;69636;52.372;13.610;2023-09-12T06:00:00;100942.72;;;15.95;100.00
80323;BME280;69636;52.372;13.610;2023-09-12T06:02:27;100939.78;;;16.05;100.00
80323;BME280;69636;52.372;13.610;2023-09-12T06:04:55;100939.47;;;16.14;100.00
80323;BME280;69636;52.372;13.610;2023-09-12T06:07:22;100929.78;;;16.28;100.00
80323;BME280;69636;52.372;13.610;2023-09-12T06:09:49;100929.09;;;16.41;100.00
80323;BME280;69636;52.372;13.610;2023-09-12T06:12:22;100940.00;;;16.54;100.00
80323;BME280;69636;52.372;13.610;2023-09-12T06:14:50;100936.47;;;16.68;100.00
80323;BME280;69636;52.372;13.610;2023-09-12T06:17:19;100939.13;;;16.83;100.00
80323;BME280;69636;52.372;13.610;2023-09-12T06:19:49;100927.53;;;16.97;100.00
80323;BME280;69636;52.372;13.610;2023-09-12T06:22:17;100930.16;;;17.12;100.00
80323;BME280;69636;52.372;13.610;2023-09-12T06:24:44;100930.28;;;17.25;100.00
80323;BME280;69636;52.372;13.610;2023-09-12T06:27:11;100913.28;;;17.39;100.00
80323;BME280;69636;52.372;13.610;2023-09-12T06:29:39;100927.44;;;17.54;100.00
80323;BME280;69636;52.372;13.610;2023-09-12T06:32:06;100924.25;;;17.66;99.82
80323;BME280;69636;52.372;13.610;2023-09-12T06:34:59;100928.09;;;17.84;98.22
80323;BME280;69636;52.372;13.610;2023-09-12T06:37:50;100933.97;;;18.01;96.20
80323;BME280;69636;52.372;13.610;2023-09-12T06:40:17;100933.69;;;18.17;93.97
80323;BME280;69636;52.372;13.610;2023-09-12T06:43:08;100944.13;;;18.40;94.12
80323;BME280;69636;52.372;13.610;2023-09-12T06:45:35;100940.00;;;18.51;92.03
80323;BME280;69636;52.372;13.610;2023-09-12T06:48:03;100947.88;;;18.52;91.36
80323;BME280;69636;52.372;13.610;2023-09-12T06:50:32;100956.25;;;18.64;90.03
80323;BME280;69636;52.372;13.610;2023-09-12T06:53:01;100949.25;;;18.76;89.75
80323;BME280;69636;52.372;13.610;2023-09-12T06:55:32;100962.13;;;18.87;88.94
80323;BME280;69636;52.372;13.610;2023-09-12T06:57:59;100967.53;;;19.01;88.32
80323;BME280;69636;52.372;13.610;2023-09-12T07:00:26;100961.97;;;19.15;86.14
80323;BME280;69636;52.372;13.610;2023-09-12T07:02:54;100957.22;;;19.30;85.09
80323;BME280;69636;52.372;13.610;2023-09-12T07:05:21;100965.53;;;19.49;83.55
80323;BME280;69636;52.372;13.610;2023-09-12T07:07:50;100966.81;;;19.59;82.69
80323;BME280;69636;52.372;13.610;2023-09-12T07:10:18;100973.66;;;19.62;81.94
80323;BME280;69636;52.372;13.610;2023-09-12T07:12:52;100971.75;;;19.76;82.00
80323;BME280;69636;52.372;13.610;2023-09-12T07:15:25;100968.88;;;19.90;80.39
80323;BME280;69636;52.372;13.610;2023-09-12T07:17:53;100969.66;;;20.04;80.02
80323;BME280;69636;52.372;13.610;2023-09-12T07:20:20;100974.63;;;20.07;79.57
80323;BME280;69636;52.372;13.610;2023-09-12T07:22:47;100976.50;;;20.13;79.29
80323;BME280;69636;52.372;13.610;2023-09-12T07:25:16;100977.94;;;20.22;79.07
80323;BME280;69636;52.372;13.610;2023-09-12T07:27:43;100976.47;;;20.40;78.49
80323;BME280;69636;52.372;13.610;2023-09-12T07:30:14;100973.13;;;20.51;77.90
80323;BME280;69636;52.372;13.610;2023-09-12T07:32:41;100967.03;;;20.69;77.21
80323;BME280;69636;52.372;13.610;2023-09-12T07:35:08;100961.53;;;20.82;76.60
80323;BME280;69636;52.372;13.610;2023-09-12T07:38:00;100963.75;;;20.98;75.92
80323;BME280;69636;52.372;13.610;2023-09-12T07:40:35;100953.47;;;21.13;75.50
80323;BME280;69636;52.372;13.610;2023-09-12T07:43:02;100944.63;;;21.38;74.90
80323;BME280;69636;52.372;13.610;2023-09-12T07:45:29;100949.53;;;21.47;74.10
80323;BME280;69636;52.372;13.610;2023-09-12T07:48:06;100944.00;;;21.60;73.56
80323;BME280;69636;52.372;13.610;2023-09-12T07:50:33;100943.03;;;21.80;73.48
80323;BME280;69636;52.372;13.610;2023-09-12T07:53:01;100945.03;;;21.84;71.61
80323;BME280;69636;52.372;13.610;2023-09-12T07:55:28;100942.88;;;21.93;70.68
80323;BME280;69636;52.372;13.610;2023-09-12T07:57:57;100951.63;;;22.13;70.76
80323;BME280;69636;52.372;13.610;2023-09-12T08:00:24;100953.00;;;22.22;70.43
80323;BME280;69636;52.372;13.610;2023-09-12T08:02:54;100954.88;;;22.40;69.03
80323;BME280;69636;52.372;13.610;2023-09-12T08:05:22;100956.41;;;22.66;69.68
80323;BME280;69636;52.372;13.610;2023-09-12T08:07:49;100956.66;;;22.83;67.90
80323;BME280;69636;52.372;13.610;2023-09-12T08:10:16;100952.13;;;22.95;67.87
80323;BME280;69636;52.372;13.610;2023-09-12T08:12:43;100960.28;;;23.07;67.13
80323;BME280;69636;52.372;13.610;2023-09-12T08:15:12;100961.13;;;23.19;65.73
80323;BME280;69636;52.372;13.610;2023-09-12T08:17:39;100955.66;;;23.37;65.16
80323;BME280;69636;52.372;13.610;2023-09-12T08:20:07;100952.78;;;23.62;64.88
80323;BME280;69636;52.372;13.610;2023-09-12T08:22:35;100953.38;;;23.99;62.99
80323;BME280;69636;52.372;13.610;2023-09-12T08:25:09;100947.72;;;24.12;61.88
80323;BME280;69636;52.372;13.610;2023-09-12T08:27:36;100956.53;;;24.31;60.96
80323;BME280;69636;52.372;13.610;2023-09-12T08:30:03;100956.72;;;24.53;61.78
80323;BME280;69636;52.372;13.610;2023-09-12T08:32:32;100966.63;;;24.59;61.60
80323;BME280;69636;52.372;13.610;2023-09-12T08:35:00;100963.03;;;24.42;60.05
80323;BME280;69636;52.372;13.610;2023-09-12T08:37:27;100953.56;;;24.44;58.78
80323;BME280;69636;52.372;13.610;2023-09-12T08:39:57;100959.66;;;24.63;59.67
80323;BME280;69636;52.372;13.610;2023-09-12T08:42:26;100953.34;;;24.74;58.76
80323;BME280;69636;52.372;13.610;2023-09-12T08:44:54;100953.91;;;24.88;58.82
80323;BME280;69636;52.372;13.610;2023-09-12T08:47:50;100940.94;;;25.07;59.38
80323;BME280;69636;52.372;13.610;2023-09-12T08:50:25;100955.13;;;25.25;58.59
80323;BME280;69636;52.372;13.610;2023-09-12T08:52:52;100952.41;;;25.25;58.62
80323;BME280;69636;52.372;13.610;2023-09-12T08:55:34;100954.69;;;25.45;58.14
80323;BME280;69636;52.372;13.610;2023-09-12T08:58:08;100954.34;;;25.58;56.28
80323;BME280;69636;52.372;13.610;2023-09-12T09:00:36;100947.91;;;25.81;56.34
80323;BME280;69636;52.372;13.610;2023-09-12T09:03:05;100947.13;;;26.02;55.17
80323;BME280;69636;52.372;13.610;2023-09-12T09:05:33;100956.06;;;25.98;55.29
80323;BME280;69636;52.372;13.610;2023-09-12T09:14:33;100963.16;;;27.35;50.89
80323;BME280;69636;52.372;13.610;2023-09-12T09:17:00;100957.09;;;27.28;51.24
80323;BME280;69636;52.372;13.610;2023-09-12T09:19:41;100950.06;;;27.05;51.77
80323;BME280;69636;52.372;13.610;2023-09-12T09:22:08;100966.16;;;26.85;51.49
80323;BME280;69636;52.372;13.610;2023-09-12T09:24:36;100965.09;;;26.86;51.75
80323;BME280;69636;52.372;13.610;2023-09-12T09:27:03;100962.56;;;26.79;52.97
80323;BME280;69636;52.372;13.610;2023-09-12T09:29:46;100960.91;;;26.78;54.17
80323;BME280;69636;52.372;13.610;2023-09-12T09:32:17;100966.47;;;26.88;53.47
80323;BME280;69636;52.372;13.610;2023-09-12T09:34:46;100961.88;;;27.16;52.03
80323;BME280;69636;52.372;13.610;2023-09-12T09:37:13;100966.47;;;27.10;51.98
80323;BME280;69636;52.372;13.610;2023-09-12T09:39:40;100962.13;;;27.14;51.35
80323;BME280;69636;52.372;13.610;2023-09-12T09:42:11;100967.34;;;27.16;51.75
80323;BME280;69636;52.372;13.610;2023-09-12T09:44:38;100958.13;;;27.22;49.99
80323;BME280;69636;52.372;13.610;2023-09-12T09:47:05;100966.78;;;27.46;50.52
80323;BME280;69636;52.372;13.610;2023-09-12T09:49:34;100973.50;;;27.65;49.97
80323;BME280;69636;52.372;13.610;2023-09-12T09:52:04;100968.97;;;27.81;50.76
80323;BME280;69636;52.372;13.610;2023-09-12T09:54:32;100965.84;;;27.99;49.74
80323;BME280;69636;52.372;13.610;2023-09-12T09:57:25;100957.81;;;27.82;49.86
80323;BME280;69636;52.372;13.610;2023-09-12T10:00:17;100961.69;;;27.91;48.95
80323;BME280;69636;52.372;13.610;2023-09-12T10:02:45;100962.00;;;27.95;49.73
80323;BME280;69636;52.372;13.610;2023-09-12T10:05:13;100963.97;;;28.04;49.00
80323;BME280;69636;52.372;13.610;2023-09-12T10:07:47;100962.75;;;28.27;49.98
80323;BME280;69636;52.372;13.610;2023-09-12T10:10:16;100966.13;;;28.50;49.77
80323;BME280;69636;52.372;13.610;2023-09-12T10:12:48;100956.84;;;28.51;48.49
80323;BME280;69636;52.372;13.610;2023-09-12T10:15:19;100955.19;;;28.45;48.61
80323;BME280;69636;52.372;13.610;2023-09-12T10:17:54;100951.41;;;28.51;47.88
80323;BME280;69636;52.372;13.610;2023-09-12T10:20:25;100942.09;;;28.47;48.33
80323;BME280;69636;52.372;13.610;2023-09-12T10:23:03;100949.78;;;28.55;48.38
80323;BME280;69636;52.372;13.610;2023-09-12T10:25:35;100945.69;;;28.67;48.16
80323;BME280;69636;52.372;13.610;2023-09-12T10:28:04;100941.38;;;28.77;48.41
80323;BME280;69636;52.372;13.610;2023-09-12T10:30:33;100943.31;;;28.81;49.30
80323;BME280;69636;52.372;13.610;2023-09-12T10:33:06;100951.53;;;28.96;48.07
80323;BME280;69636;52.372;13.610;2023-09-12T10:35:35;100939.00;;;29.31;47.46
80323;BME280;69636;52.372;13.610;2023-09-12T10:38:07;100943.69;;;29.51;47.21
80323;BME280;69636;52.372;13.610;2023-09-12T10:40:36;100927.78;;;29.78;45.25
80323;BME280;69636;52.372;13.610;2023-09-12T10:43:10;100929.66;;;30.03;44.89
80323;BME280;69636;52.372;13.610;2023-09-12T10:45:43;100938.38;;;30.15;45.00
80323;BME280;69636;52.372;13.610;2023-09-12T10:48:10;100923.97;;;30.64;43.30
80323;BME280;69636;52.372;13.610;2023-09-12T10:50:38;100918.88;;;30.86;42.69
80323;BME280;69636;52.372;13.610;2023-09-12T10:53:12;100927.84;;;30.97;43.81
80323;BME280;69636;52.372;13.610;2023-09-12T10:55:39;100931.88;;;31.15;43.77
80323;BME280;69636;52.372;13.610;2023-09-12T10:58:08;100930.88;;;30.95;43.49
80323;BME280;69636;52.372;13.610;2023-09-12T11:00:35;100934.50;;;30.91;43.12
80323;BME280;69636;52.372;13.610;2023-09-12T11:06:34;100928.66;;;30.97;42.95
80323;BME280;69636;52.372;13.610;2023-09-12T11:09:27;100932.44;;;31.12;43.62
80323;BME280;69636;52.372;13.610;2023-09-12T11:11:56;100930.91;;;31.63;40.87
80323;BME280;69636;52.372;13.610;2023-09-12T11:14:23;100923.97;;;32.24;39.99
80323;BME280;69636;52.372;13.610;2023-09-12T11:17:22;100921.28;;;31.95;39.12
80323;BME280;69636;52.372;13.610;2023-09-12T11:19:52;100918.41;;;31.18;39.85
80323;BME280;69636;52.372;13.610;2023-09-12T11:22:24;100914.91;;;31.70;38.83
80323;BME280;69636;52.372;13.610;2023-09-12T11:24:54;100916.66;;;31.61;39.74
80323;BME280;69636;52.372;13.610;2023-09-12T11:27:23;100910.16;;;31.81;39.71
80323;BME280;69636;52.372;13.610;2023-09-12T11:29:50;100919.44;;;31.56;40.49
80323;BME280;69636;52.372;13.610;2023-09-12T11:32:26;100912.06;;;31.52;40.12
80323;BME280;69636;52.372;13.610;2023-09-12T11:34:54;100920.50;;;31.60;41.23
80323;BME280;69636;52.372;13.610;2023-09-12T11:37:25;100911.03;;;31.09;42.46
80323;BME280;69636;52.372;13.610;2023-09-12T11:39:54;100915.25;;;30.47;41.42
80323;BME280;69636;52.372;13.610;2023-09-12T11:42:28;100909.41;;;29.94;43.09
80323;BME280;69636;52.372;13.610;2023-09-12T11:44:56;100907.41;;;30.20;42.94
80323;BME280;69636;52.372;13.610;2023-09-12T11:47:24;100901.25;;;30.48;43.18
80323;BME280;69636;52.372;13.610;2023-09-12T11:49:55;100906.31;;;30.26;42.73
80323;BME280;69636;52.372;13.610;2023-09-12T11:52:22;100897.69;;;30.48;42.44
80323;BME280;69636;52.372;13.610;2023-09-12T11:54:54;100898.69;;;30.72;42.46
80323;BME280;69636;52.372;13.610;2023-09-12T11:57:22;100899.56;;;31.01;42.10
80323;BME280;69636;52.372;13.610;2023-09-12T11:59:50;100900.63;;;31.11;41.93
80323;BME280;69636;52.372;13.610;2023-09-12T12:02:17;100908.72;;;31.26;40.17
80323;BME280;69636;52.372;13.610;2023-09-12T12:04:44;100903.31;;;31.50;39.32
80323;BME280;69636;52.372;13.610;2023-09-12T12:07:12;100900.84;;;31.48;40.40
80323;BME280;69636;52.372;13.610;2023-09-12T12:09:40;100901.19;;;31.13;41.06
80323;BME280;69636;52.372;13.610;2023-09-12T12:12:32;100903.16;;;31.36;39.72
80323;BME280;69636;52.372;13.610;2023-09-12T12:15:27;100902.19;;;31.22;40.41
80323;BME280;69636;52.372;13.610;2023-09-12T12:17:54;100899.69;;;31.54;40.06
80323;BME280;69636;52.372;13.610;2023-09-12T12:20:22;100894.00;;;31.46;40.17
80323;BME280;69636;52.372;13.610;2023-09-12T12:22:50;100896.41;;;31.52;40.36
80323;BME280;69636;52.372;13.610;2023-09-12T12:25:20;100893.59;;;31.33;40.71
80323;BME280;69636;52.372;13.610;2023-09-12T12:27:49;100900.09;;;31.43;40.57
80323;BME280;69636;52.372;13.610;2023-09-12T12:30:20;100905.00;;;32.46;37.95
80323;BME280;69636;52.372;13.610;2023-09-12T12:32:48;100902.53;;;33.20;36.13
80323;BME280;69636;52.372;13.610;2023-09-12T12:35:18;100894.22;;;34.12;34.07
80323;BME280;69636;52.372;13.610;2023-09-12T12:38:05;100901.97;;;34.87;33.35
80323;BME280;69636;52.372;13.610;2023-09-12T12:40:37;100901.97;;;35.54;31.98
80323;BME280;69636;52.372;13.610;2023-09-12T12:43:20;100886.13;;;36.08;31.05
80323;BME280;69636;52.372;13.610;2023-09-12T12:45:54;100890.13;;;35.93;31.12
80323;BME280;69636;52.372;13.610;2023-09-12T12:48:31;100887.38;;;34.51;33.11
80323;BME280;69636;52.372;13.610;2023-09-12T12:51:05;100887.19;;;34.33;34.12
80323;BME280;69636;52.372;13.610;2023-09-12T12:53:39;100884.41;;;35.28;32.12
80323;BME280;69636;52.372;13.610;2023-09-12T12:56:14;100886.19;;;35.77;31.55
80323;BME280;69636;52.372;13.610;2023-09-12T12:58:50;100884.72;;;35.49;31.85
80323;BME280;69636;52.372;13.610;2023-09-12T13:01:18;100877.28;;;35.04;31.87
80323;BME280;69636;52.372;13.610;2023-09-12T13:03:46;100875.00;;;35.51;31.90
80323;BME280;69636;52.372;13.610;2023-09-12T13:06:14;100876.75;;;35.78;31.34